sensor_id;sensor_type;location;lat;lon;timestamp;P1;durP1;ratioP1;P2;durP2;ratioP2
37971;SDS011;23794;48.234;8.344;2022-08-30T00:00:50;7.60;;;6.60;;
37971;SDS011;23794;48.234;8.344;2022-08-30T00:03:32;8.82;;;6.72;;
37971;SDS011;23794;48.234;8.344;2022-08-30T00:08:31;8.88;;;6.88;;
37971;SDS011;23794;48.234;8.344;2022-08-30T00:10:59;9.55;;;6.47;;
37971;SDS011;23794;48.234;8.344;2022-08-30T00:13:27;8.85;;;6.70;;
37971;SDS011;23794;48.234;8.344;2022-08-30T00:15:54;7.28;;;5.97;;
37971;SDS011;23794;48.234;8.344;2022-08-30T00:18:22;8.50;;;7.55;;
37971;SDS011;23794;48.234;8.344;2022-08-30T00:20:50;6.50;;;5.85;;
37971;SDS011;23794;48.234;8.344;2022-08-30T00:23:18;7.72;;;7.00;;
37971;SDS011;23794;48.234;8.344;2022-08-30T00:25:45;7.15;;;6.45;;
37971;SDS011;23794;48.234;8.344;2022-08-30T00:28:12;7.65;;;6.25;;
37971;SDS011;23794;48.234;8.344;2022-08-30T00:30:40;7.70;;;6.90;;
37971;SDS011;23794;48.234;8.344;2022-08-30T00:33:07;7.68;;;6.88;;
37971;SDS011;23794;48.234;8.344;2022-08-30T00:35:35;6.72;;;6.10;;
37971;SDS011;23794;48.234;8.344;2022-08-30T00:38:03;7.40;;;6.32;;
37971;SDS011;23794;48.234;8.344;2022-08-30T00:40:34;7.10;;;6.25;;
37971;SDS011;23794;48.234;8.344;2022-08-30T00:43:05;10.65;;;6.70;;
37971;SDS011;23794;48.234;8.344;2022-08-30T00:45:39;7.85;;;6.72;;
37971;SDS011;23794;48.234;8.344;2022-08-30T00:48:06;8.48;;;6.40;;
37971;SDS011;23794;48.234;8.344;2022-08-30T00:50:36;7.45;;;6.63;;
37971;SDS011;23794;48.234;8.344;2022-08-30T00:55:49;8.55;;;7.35;;
37971;SDS011;23794;48.234;8.344;2022-08-30T00:58:20;7.15;;;6.45;;
37971;SDS011;23794;48.234;8.344;2022-08-30T01:00:53;8.75;;;7.38;;
37971;SDS011;23794;48.234;8.344;2022-08-30T01:03:21;7.95;;;7.15;;
37971;SDS011;23794;48.234;8.344;2022-08-30T01:05:50;7.43;;;6.70;;
37971;SDS011;23794;48.234;8.344;2022-08-30T01:08:18;9.30;;;7.50;;
37971;SDS011;23794;48.234;8.344;2022-08-30T01:10:47;6.68;;;5.97;;
37971;SDS011;23794;48.234;8.344;2022-08-30T01:13:16;9.18;;;6.95;;
37971;SDS011;23794;48.234;8.344;2022-08-30T01:15:43;8.38;;;7.32;;
37971;SDS011;23794;48.234;8.344;2022-08-30T01:18:11;7.80;;;6.93;;
37971;SDS011;23794;48.234;8.344;2022-08-30T01:20:49;8.30;;;6.55;;
37971;SDS011;23794;48.234;8.344;2022-08-30T01:23:34;8.63;;;6.22;;
37971;SDS011;23794;48.234;8.344;2022-08-30T01:26:05;7.20;;;6.47;;
37971;SDS011;23794;48.234;8.344;2022-08-30T01:28:32;8.40;;;7.57;;
37971;SDS011;23794;48.234;8.344;2022-08-30T01:31:00;9.15;;;8.13;;
37971;SDS011;23794;48.234;8.344;2022-08-30T01:33:27;8.95;;;6.68;;
37971;SDS011;23794;48.234;8.344;2022-08-30T01:35:55;7.03;;;6.32;;
37971;SDS011;23794;48.234;8.344;2022-08-30T01:38:28;8.70;;;7.57;;
37971;SDS011;23794;48.234;8.344;2022-08-30T01:43:36;7.95;;;7.15;;
37971;SDS011;23794;48.234;8.344;2022-08-30T01:46:03;8.05;;;6.82;;
37971;SDS011;23794;48.234;8.344;2022-08-30T01:48:30;8.45;;;7.47;;
37971;SDS011;23794;48.234;8.344;2022-08-30T01:50:57;7.47;;;6.78;;
37971;SDS011;23794;48.234;8.344;2022-08-30T01:53:24;7.65;;;6.65;;
37971;SDS011;23794;48.234;8.344;2022-08-30T01:55:51;8.95;;;6.80;;
37971;SDS011;23794;48.234;8.344;2022-08-30T01:58:18;7.45;;;6.75;;
37971;SDS011;23794;48.234;8.344;2022-08-30T02:00:45;8.55;;;7.47;;
37971;SDS011;23794;48.234;8.344;2022-08-30T02:03:11;9.35;;;7.50;;
37971;SDS011;23794;48.234;8.344;2022-08-30T02:05:38;8.70;;;7.05;;
37971;SDS011;23794;48.234;8.344;2022-08-30T02:08:05;13.93;;;8.13;;
37971;SDS011;23794;48.234;8.344;2022-08-30T02:10:32;8.70;;;7.70;;
37971;SDS011;23794;48.234;8.344;2022-08-30T02:12:59;8.45;;;7.25;;
37971;SDS011;23794;48.234;8.344;2022-08-30T02:15:26;7.15;;;6.45;;
37971;SDS011;23794;48.234;8.344;2022-08-30T02:17:52;7.32;;;6.18;;
37971;SDS011;23794;48.234;8.344;2022-08-30T02:20:19;7.55;;;6.68;;
37971;SDS011;23794;48.234;8.344;2022-08-30T02:22:46;8.32;;;7.53;;
37971;SDS011;23794;48.234;8.344;2022-08-30T02:25:14;8.82;;;7.30;;
37971;SDS011;23794;48.234;8.344;2022-08-30T02:27:46;8.35;;;7.55;;
37971;SDS011;23794;48.234;8.344;2022-08-30T02:30:14;8.55;;;7.05;;
37971;SDS011;23794;48.234;8.344;2022-08-30T02:32:40;8.18;;;7.38;;
37971;SDS011;23794;48.234;8.344;2022-08-30T02:35:07;7.68;;;6.65;;
37971;SDS011;23794;48.234;8.344;2022-08-30T02:37:34;10.80;;;6.93;;
37971;SDS011;23794;48.234;8.344;2022-08-30T02:40:02;10.80;;;6.63;;
37971;SDS011;23794;48.234;8.344;2022-08-30T02:42:32;11.55;;;7.93;;
37971;SDS011;23794;48.234;8.344;2022-08-30T02:45:00;7.97;;;7.25;;
37971;SDS011;23794;48.234;8.344;2022-08-30T02:47:27;9.95;;;7.70;;
37971;SDS011;23794;48.234;8.344;2022-08-30T02:49:53;8.60;;;7.70;;
37971;SDS011;23794;48.234;8.344;2022-08-30T02:52:20;9.50;;;8.60;;
37971;SDS011;23794;48.234;8.344;2022-08-30T02:54:53;8.75;;;7.47;;
37971;SDS011;23794;48.234;8.344;2022-08-30T02:57:20;9.73;;;7.78;;
37971;SDS011;23794;48.234;8.344;2022-08-30T02:59:48;8.02;;;7.22;;
37971;SDS011;23794;48.234;8.344;2022-08-30T03:02:14;8.13;;;7.20;;
37971;SDS011;23794;48.234;8.344;2022-08-30T03:04:41;9.57;;;7.78;;
37971;SDS011;23794;48.234;8.344;2022-08-30T03:07:11;7.85;;;7.05;;
37971;SDS011;23794;48.234;8.344;2022-08-30T03:09:38;9.75;;;7.32;;
37971;SDS011;23794;48.234;8.344;2022-08-30T03:12:06;7.57;;;6.78;;
37971;SDS011;23794;48.234;8.344;2022-08-30T03:14:36;8.90;;;8.00;;
37971;SDS011;23794;48.234;8.344;2022-08-30T03:17:04;10.73;;;7.78;;
37971;SDS011;23794;48.234;8.344;2022-08-30T03:19:38;8.23;;;6.78;;
37971;SDS011;23794;48.234;8.344;2022-08-30T03:22:04;8.80;;;7.95;;
37971;SDS011;23794;48.234;8.344;2022-08-30T03:24:32;8.93;;;8.02;;
37971;SDS011;23794;48.234;8.344;2022-08-30T03:26:59;9.05;;;8.10;;
37971;SDS011;23794;48.234;8.344;2022-08-30T03:29:27;9.05;;;8.20;;
37971;SDS011;23794;48.234;8.344;2022-08-30T03:31:55;8.65;;;7.85;;
37971;SDS011;23794;48.234;8.344;2022-08-30T03:34:23;7.03;;;6.38;;
37971;SDS011;23794;48.234;8.344;2022-08-30T03:36:52;8.52;;;7.72;;
37971;SDS011;23794;48.234;8.344;2022-08-30T03:39:21;8.82;;;7.53;;
37971;SDS011;23794;48.234;8.344;2022-08-30T03:41:50;9.02;;;8.07;;
37971;SDS011;23794;48.234;8.344;2022-08-30T03:44:17;8.27;;;7.47;;
37971;SDS011;23794;48.234;8.344;2022-08-30T03:46:45;8.70;;;7.63;;
37971;SDS011;23794;48.234;8.344;2022-08-30T03:49:12;8.85;;;7.75;;
37971;SDS011;23794;48.234;8.344;2022-08-30T03:51:38;8.30;;;7.40;;
37971;SDS011;23794;48.234;8.344;2022-08-30T03:54:05;9.98;;;7.95;;
37971;SDS011;23794;48.234;8.344;2022-08-30T03:56:32;10.77;;;8.63;;
37971;SDS011;23794;48.234;8.344;2022-08-30T03:58:59;9.50;;;8.48;;
37971;SDS011;23794;48.234;8.344;2022-08-30T04:01:25;12.93;;;9.18;;
37971;SDS011;23794;48.234;8.344;2022-08-30T04:03:52;9.40;;;8.10;;
37971;SDS011;23794;48.234;8.344;2022-08-30T04:06:20;10.00;;;8.60;;
37971;SDS011;23794;48.234;8.344;2022-08-30T04:08:50;10.52;;;8.70;;
37971;SDS011;23794;48.234;8.344;2022-08-30T04:11:16;9.50;;;7.90;;
37971;SDS011;23794;48.234;8.344;2022-08-30T04:13:43;8.98;;;8.07;;
37971;SDS011;23794;48.234;8.344;2022-08-30T04:16:10;8.30;;;7.50;;
37971;SDS011;23794;48.234;8.344;2022-08-30T04:18:37;8.80;;;7.65;;
37971;SDS011;23794;48.234;8.344;2022-08-30T04:21:04;8.95;;;8.05;;
37971;SDS011;23794;48.234;8.344;2022-08-30T04:23:31;10.70;;;8.20;;
37971;SDS011;23794;48.234;8.344;2022-08-30T04:25:58;9.18;;;8.10;;
37971;SDS011;23794;48.234;8.344;2022-08-30T04:28:25;9.63;;;8.07;;
37971;SDS011;23794;48.234;8.344;2022-08-30T04:30:52;10.20;;;9.20;;
37971;SDS011;23794;48.234;8.344;2022-08-30T04:33:19;11.35;;;9.02;;
37971;SDS011;23794;48.234;8.344;2022-08-30T04:35:46;9.13;;;8.30;;
37971;SDS011;23794;48.234;8.344;2022-08-30T04:38:15;9.85;;;8.73;;
37971;SDS011;23794;48.234;8.344;2022-08-30T04:40:43;9.50;;;7.57;;
37971;SDS011;23794;48.234;8.344;2022-08-30T04:43:10;8.20;;;7.40;;
37971;SDS011;23794;48.234;8.344;2022-08-30T04:45:38;8.45;;;7.20;;
37971;SDS011;23794;48.234;8.344;2022-08-30T04:48:06;9.20;;;7.68;;
37971;SDS011;23794;48.234;8.344;2022-08-30T04:50:33;12.55;;;8.65;;
37971;SDS011;23794;48.234;8.344;2022-08-30T04:53:10;10.95;;;8.80;;
37971;SDS011;23794;48.234;8.344;2022-08-30T04:55:38;10.00;;;7.63;;
37971;SDS011;23794;48.234;8.344;2022-08-30T04:58:06;10.90;;;7.93;;
37971;SDS011;23794;48.234;8.344;2022-08-30T05:00:33;9.30;;;7.45;;
37971;SDS011;23794;48.234;8.344;2022-08-30T05:02:59;11.85;;;8.20;;
37971;SDS011;23794;48.234;8.344;2022-08-30T05:05:26;9.43;;;8.27;;
37971;SDS011;23794;48.234;8.344;2022-08-30T05:08:05;9.27;;;7.85;;
37971;SDS011;23794;48.234;8.344;2022-08-30T05:10:35;11.30;;;8.13;;
37971;SDS011;23794;48.234;8.344;2022-08-30T05:13:04;9.02;;;7.90;;
37971;SDS011;23794;48.234;8.344;2022-08-30T05:15:31;8.93;;;7.60;;
37971;SDS011;23794;48.234;8.344;2022-08-30T05:17:58;11.32;;;8.40;;
37971;SDS011;23794;48.234;8.344;2022-08-30T05:20:25;8.70;;;7.72;;
37971;SDS011;23794;48.234;8.344;2022-08-30T05:22:51;10.10;;;7.82;;
37971;SDS011;23794;48.234;8.344;2022-08-30T05:25:23;9.55;;;8.13;;
37971;SDS011;23794;48.234;8.344;2022-08-30T05:27:51;11.95;;;8.13;;
37971;SDS011;23794;48.234;8.344;2022-08-30T05:30:19;8.20;;;7.32;;
37971;SDS011;23794;48.234;8.344;2022-08-30T05:32:46;10.05;;;9.05;;
37971;SDS011;23794;48.234;8.344;2022-08-30T05:35:13;7.80;;;7.00;;
37971;SDS011;23794;48.234;8.344;2022-08-30T05:37:41;10.20;;;9.20;;
37971;SDS011;23794;48.234;8.344;2022-08-30T05:40:09;9.68;;;8.60;;
37971;SDS011;23794;48.234;8.344;2022-08-30T05:42:37;9.75;;;7.55;;
37971;SDS011;23794;48.234;8.344;2022-08-30T05:45:06;8.57;;;7.45;;
37971;SDS011;23794;48.234;8.344;2022-08-30T05:47:34;9.57;;;7.40;;
37971;SDS011;23794;48.234;8.344;2022-08-30T05:50:02;8.95;;;7.45;;
37971;SDS011;23794;48.234;8.344;2022-08-30T05:52:29;9.10;;;7.50;;
37971;SDS011;23794;48.234;8.344;2022-08-30T05:54:56;8.65;;;7.75;;
37971;SDS011;23794;48.234;8.344;2022-08-30T05:57:32;8.57;;;7.70;;
37971;SDS011;23794;48.234;8.344;2022-08-30T06:00:04;8.30;;;7.47;;
37971;SDS011;23794;48.234;8.344;2022-08-30T06:02:37;8.48;;;7.43;;
37971;SDS011;23794;48.234;8.344;2022-08-30T06:05:04;11.43;;;9.25;;
37971;SDS011;23794;48.234;8.344;2022-08-30T06:07:33;8.80;;;7.50;;
37971;SDS011;23794;48.234;8.344;2022-08-30T06:10:00;9.18;;;8.23;;
37971;SDS011;23794;48.234;8.344;2022-08-30T06:12:27;9.00;;;8.10;;
37971;SDS011;23794;48.234;8.344;2022-08-30T06:14:54;8.90;;;8.00;;
37971;SDS011;23794;48.234;8.344;2022-08-30T06:17:21;9.60;;;7.65;;
37971;SDS011;23794;48.234;8.344;2022-08-30T06:19:48;10.13;;;9.10;;
37971;SDS011;23794;48.234;8.344;2022-08-30T06:22:14;9.38;;;8.35;;
37971;SDS011;23794;48.234;8.344;2022-08-30T06:24:41;8.73;;;7.60;;
37971;SDS011;23794;48.234;8.344;2022-08-30T06:29:52;8.70;;;7.80;;
37971;SDS011;23794;48.234;8.344;2022-08-30T06:32:19;13.30;;;9.98;;
37971;SDS011;23794;48.234;8.344;2022-08-30T06:34:46;8.98;;;8.07;;
37971;SDS011;23794;48.234;8.344;2022-08-30T06:37:13;8.93;;;7.80;;
37971;SDS011;23794;48.234;8.344;2022-08-30T06:42:22;8.45;;;7.60;;
37971;SDS011;23794;48.234;8.344;2022-08-30T06:44:55;8.73;;;7.82;;
37971;SDS011;23794;48.234;8.344;2022-08-30T06:47:23;8.20;;;7.40;;
37971;SDS011;23794;48.234;8.344;2022-08-30T06:49:50;10.40;;;8.45;;
37971;SDS011;23794;48.234;8.344;2022-08-30T06:52:17;7.10;;;6.40;;
37971;SDS011;23794;48.234;8.344;2022-08-30T06:54:44;8.15;;;7.25;;
37971;SDS011;23794;48.234;8.344;2022-08-30T06:57:11;8.93;;;7.40;;
37971;SDS011;23794;48.234;8.344;2022-08-30T06:59:38;8.30;;;7.50;;
37971;SDS011;23794;48.234;8.344;2022-08-30T07:02:05;8.73;;;7.78;;
37971;SDS011;23794;48.234;8.344;2022-08-30T07:04:33;8.38;;;7.40;;
37971;SDS011;23794;48.234;8.344;2022-08-30T07:07:00;8.88;;;7.20;;
37971;SDS011;23794;48.234;8.344;2022-08-30T07:09:27;10.02;;;8.10;;
37971;SDS011;23794;48.234;8.344;2022-08-30T07:11:55;7.13;;;6.43;;
37971;SDS011;23794;48.234;8.344;2022-08-30T07:16:52;8.00;;;7.13;;
37971;SDS011;23794;48.234;8.344;2022-08-30T07:19:19;8.48;;;7.47;;
37971;SDS011;23794;48.234;8.344;2022-08-30T07:21:51;9.52;;;7.18;;
37971;SDS011;23794;48.234;8.344;2022-08-30T07:24:18;9.20;;;6.55;;
37971;SDS011;23794;48.234;8.344;2022-08-30T07:26:47;7.82;;;7.10;;
37971;SDS011;23794;48.234;8.344;2022-08-30T07:29:17;8.15;;;7.38;;
37971;SDS011;23794;48.234;8.344;2022-08-30T07:31:43;8.82;;;6.90;;
37971;SDS011;23794;48.234;8.344;2022-08-30T07:34:11;9.27;;;7.50;;
37971;SDS011;23794;48.234;8.344;2022-08-30T07:36:38;6.97;;;5.93;;
37971;SDS011;23794;48.234;8.344;2022-08-30T07:39:05;6.95;;;6.25;;
37971;SDS011;23794;48.234;8.344;2022-08-30T07:41:34;8.05;;;7.28;;
37971;SDS011;23794;48.234;8.344;2022-08-30T07:44:04;7.65;;;6.95;;
37971;SDS011;23794;48.234;8.344;2022-08-30T07:46:31;6.38;;;5.78;;
37971;SDS011;23794;48.234;8.344;2022-08-30T07:48:59;7.75;;;6.30;;
37971;SDS011;23794;48.234;8.344;2022-08-30T07:51:29;6.68;;;6.05;;
37971;SDS011;23794;48.234;8.344;2022-08-30T07:53:56;8.13;;;6.50;;
37971;SDS011;23794;48.234;8.344;2022-08-30T07:56:23;9.02;;;6.00;;
37971;SDS011;23794;48.234;8.344;2022-08-30T07:58:50;5.82;;;5.05;;
37971;SDS011;23794;48.234;8.344;2022-08-30T08:01:18;5.55;;;5.03;;
37971;SDS011;23794;48.234;8.344;2022-08-30T08:03:45;6.68;;;6.00;;
37971;SDS011;23794;48.234;8.344;2022-08-30T08:06:13;7.55;;;5.97;;
37971;SDS011;23794;48.234;8.344;2022-08-30T08:08:42;6.32;;;5.72;;
37971;SDS011;23794;48.234;8.344;2022-08-30T08:11:14;6.63;;;5.25;;
37971;SDS011;23794;48.234;8.344;2022-08-30T08:13:43;6.22;;;5.63;;
37971;SDS011;23794;48.234;8.344;2022-08-30T08:16:19;6.35;;;5.10;;
37971;SDS011;23794;48.234;8.344;2022-08-30T08:18:48;5.82;;;4.55;;
37971;SDS011;23794;48.234;8.344;2022-08-30T08:21:14;6.00;;;5.40;;
37971;SDS011;23794;48.234;8.344;2022-08-30T08:23:41;5.40;;;4.88;;
37971;SDS011;23794;48.234;8.344;2022-08-30T08:26:08;4.95;;;4.55;;
37971;SDS011;23794;48.234;8.344;2022-08-30T08:28:35;5.45;;;4.85;;
37971;SDS011;23794;48.234;8.344;2022-08-30T08:31:02;5.47;;;4.88;;
37971;SDS011;23794;48.234;8.344;2022-08-30T08:33:29;5.22;;;4.32;;
37971;SDS011;23794;48.234;8.344;2022-08-30T08:35:56;4.82;;;4.32;;
37971;SDS011;23794;48.234;8.344;2022-08-30T08:38:22;5.97;;;4.03;;
37971;SDS011;23794;48.234;8.344;2022-08-30T08:43:28;4.72;;;4.28;;
37971;SDS011;23794;48.234;8.344;2022-08-30T08:46:05;5.55;;;4.82;;
37971;SDS011;23794;48.234;8.344;2022-08-30T08:48:57;6.00;;;4.47;;
37971;SDS011;23794;48.234;8.344;2022-08-30T08:51:33;5.47;;;4.80;;
37971;SDS011;23794;48.234;8.344;2022-08-30T08:54:23;4.65;;;4.22;;
37971;SDS011;23794;48.234;8.344;2022-08-30T08:57:09;4.97;;;4.47;;
37971;SDS011;23794;48.234;8.344;2022-08-30T08:59:41;5.45;;;4.95;;
37971;SDS011;23794;48.234;8.344;2022-08-30T09:07:26;5.80;;;4.72;;
37971;SDS011;23794;48.234;8.344;2022-08-30T09:09:57;4.88;;;4.47;;
37971;SDS011;23794;48.234;8.344;2022-08-30T09:12:26;4.65;;;4.25;;
37971;SDS011;23794;48.234;8.344;2022-08-30T09:14:54;4.20;;;3.80;;
37971;SDS011;23794;48.234;8.344;2022-08-30T09:17:27;5.88;;;4.55;;
37971;SDS011;23794;48.234;8.344;2022-08-30T09:22:26;4.60;;;4.13;;
37971;SDS011;23794;48.234;8.344;2022-08-30T09:32:49;4.45;;;4.05;;
37971;SDS011;23794;48.234;8.344;2022-08-30T09:35:24;4.70;;;4.10;;
37971;SDS011;23794;48.234;8.344;2022-08-30T09:37:55;5.18;;;3.72;;
37971;SDS011;23794;48.234;8.344;2022-08-30T09:40:39;4.50;;;4.10;;
37971;SDS011;23794;48.234;8.344;2022-08-30T09:45:45;3.92;;;3.22;;
37971;SDS011;23794;48.234;8.344;2022-08-30T09:53:49;6.13;;;4.00;;
37971;SDS011;23794;48.234;8.344;2022-08-30T09:59:39;6.15;;;4.22;;
37971;SDS011;23794;48.234;8.344;2022-08-30T10:05:04;4.13;;;3.67;;
37971;SDS011;23794;48.234;8.344;2022-08-30T10:07:53;6.65;;;4.35;;
37971;SDS011;23794;48.234;8.344;2022-08-30T10:16:09;5.75;;;4.32;;
37971;SDS011;23794;48.234;8.344;2022-08-30T10:18:50;3.97;;;3.63;;
37971;SDS011;23794;48.234;8.344;2022-08-30T10:21:39;4.72;;;3.60;;
37971;SDS011;23794;48.234;8.344;2022-08-30T10:24:13;4.32;;;3.92;;
37971;SDS011;23794;48.234;8.344;2022-08-30T10:26:48;5.18;;;3.78;;
37971;SDS011;23794;48.234;8.344;2022-08-30T10:29:22;4.35;;;3.95;;
37971;SDS011;23794;48.234;8.344;2022-08-30T10:32:59;4.93;;;4.32;;
37971;SDS011;23794;48.234;8.344;2022-08-30T10:35:09;4.53;;;4.13;;
37971;SDS011;23794;48.234;8.344;2022-08-30T10:37:52;5.63;;;4.07;;
37971;SDS011;23794;48.234;8.344;2022-08-30T10:40:30;5.13;;;4.07;;
37971;SDS011;23794;48.234;8.344;2022-08-30T10:46:21;5.18;;;4.32;;
37971;SDS011;23794;48.234;8.344;2022-08-30T10:49:01;4.15;;;3.75;;
37971;SDS011;23794;48.234;8.344;2022-08-30T10:51:50;4.30;;;3.63;;
37971;SDS011;23794;48.234;8.344;2022-08-30T10:54:25;6.05;;;4.00;;
37971;SDS011;23794;48.234;8.344;2022-08-30T10:57:01;3.47;;;3.10;;
37971;SDS011;23794;48.234;8.344;2022-08-30T10:59:28;5.60;;;3.60;;
37971;SDS011;23794;48.234;8.344;2022-08-30T11:04:49;6.05;;;3.58;;
37971;SDS011;23794;48.234;8.344;2022-08-30T11:12:37;8.50;;;4.25;;
37971;SDS011;23794;48.234;8.344;2022-08-30T11:15:27;5.53;;;3.92;;
37971;SDS011;23794;48.234;8.344;2022-08-30T11:18:02;3.90;;;3.50;;
37971;SDS011;23794;48.234;8.344;2022-08-30T11:20:42;4.25;;;3.80;;
37971;SDS011;23794;48.234;8.344;2022-08-30T11:25:52;3.42;;;3.13;;
37971;SDS011;23794;48.234;8.344;2022-08-30T11:31:10;6.13;;;3.75;;
37971;SDS011;23794;48.234;8.344;2022-08-30T11:33:48;4.00;;;3.60;;
37971;SDS011;23794;48.234;8.344;2022-08-30T11:39:34;4.57;;;3.30;;
37971;SDS011;23794;48.234;8.344;2022-08-30T11:47:57;4.32;;;3.92;;
37971;SDS011;23794;48.234;8.344;2022-08-30T11:58:51;4.50;;;3.72;;
37971;SDS011;23794;48.234;8.344;2022-08-30T12:04:24;4.20;;;3.80;;
37971;SDS011;23794;48.234;8.344;2022-08-30T12:07:06;5.43;;;4.00;;
37971;SDS011;23794;48.234;8.344;2022-08-30T12:14:35;5.35;;;4.00;;
37971;SDS011;23794;48.234;8.344;2022-08-30T12:20:24;5.63;;;5.05;;
37971;SDS011;23794;48.234;8.344;2022-08-30T12:23:16;6.47;;;4.95;;
37971;SDS011;23794;48.234;8.344;2022-08-30T12:26:07;7.32;;;4.35;;
37971;SDS011;23794;48.234;8.344;2022-08-30T12:37:39;4.97;;;4.55;;
37971;SDS011;23794;48.234;8.344;2022-08-30T12:39:46;5.78;;;4.03;;
37971;SDS011;23794;48.234;8.344;2022-08-30T12:42:23;4.47;;;4.07;;
37971;SDS011;23794;48.234;8.344;2022-08-30T12:44:59;4.90;;;4.18;;
37971;SDS011;23794;48.234;8.344;2022-08-30T12:47:36;6.40;;;4.72;;
37971;SDS011;23794;48.234;8.344;2022-08-30T12:50:12;4.30;;;3.88;;
37971;SDS011;23794;48.234;8.344;2022-08-30T12:52:43;5.22;;;4.43;;
37971;SDS011;23794;48.234;8.344;2022-08-30T12:55:22;8.02;;;4.85;;
37971;SDS011;23794;48.234;8.344;2022-08-30T12:58:00;6.88;;;4.38;;
37971;SDS011;23794;48.234;8.344;2022-08-30T13:03:02;4.32;;;3.92;;
37971;SDS011;23794;48.234;8.344;2022-08-30T13:05:43;4.75;;;4.35;;
37971;SDS011;23794;48.234;8.344;2022-08-30T13:16:07;4.68;;;4.28;;
37971;SDS011;23794;48.234;8.344;2022-08-30T13:18:44;4.82;;;4.22;;
37971;SDS011;23794;48.234;8.344;2022-08-30T13:23:59;3.97;;;3.63;;
37971;SDS011;23794;48.234;8.344;2022-08-30T13:26:27;4.55;;;3.38;;
37971;SDS011;23794;48.234;8.344;2022-08-30T13:28:58;4.32;;;3.92;;
37971;SDS011;23794;48.234;8.344;2022-08-30T13:31:27;4.85;;;3.38;;
37971;SDS011;23794;48.234;8.344;2022-08-30T13:33:55;3.67;;;3.38;;
37971;SDS011;23794;48.234;8.344;2022-08-30T13:36:29;3.38;;;3.08;;
37971;SDS011;23794;48.234;8.344;2022-08-30T13:38:59;3.90;;;3.50;;
37971;SDS011;23794;48.234;8.344;2022-08-30T13:41:26;5.15;;;3.50;;
37971;SDS011;23794;48.234;8.344;2022-08-30T13:43:59;4.95;;;4.15;;
37971;SDS011;23794;48.234;8.344;2022-08-30T13:46:46;4.03;;;3.60;;
37971;SDS011;23794;48.234;8.344;2022-08-30T13:49:22;3.90;;;3.58;;
37971;SDS011;23794;48.234;8.344;2022-08-30T13:52:12;3.58;;;3.28;;
37971;SDS011;23794;48.234;8.344;2022-08-30T13:54:50;4.28;;;3.28;;
37971;SDS011;23794;48.234;8.344;2022-08-30T13:57:19;4.90;;;3.60;;
37971;SDS011;23794;48.234;8.344;2022-08-30T14:00:09;5.78;;;3.45;;
37971;SDS011;23794;48.234;8.344;2022-08-30T14:02:41;5.53;;;3.30;;
37971;SDS011;23794;48.234;8.344;2022-08-30T14:05:13;4.97;;;3.90;;
37971;SDS011;23794;48.234;8.344;2022-08-30T14:08:00;7.57;;;3.53;;
37971;SDS011;23794;48.234;8.344;2022-08-30T14:10:27;4.22;;;3.00;;
37971;SDS011;23794;48.234;8.344;2022-08-30T14:12:56;3.42;;;3.13;;
37971;SDS011;23794;48.234;8.344;2022-08-30T14:15:34;4.65;;;3.75;;
37971;SDS011;23794;48.234;8.344;2022-08-30T14:18:05;3.60;;;3.08;;
37971;SDS011;23794;48.234;8.344;2022-08-30T14:20:33;3.88;;;3.47;;
37971;SDS011;23794;48.234;8.344;2022-08-30T14:23:04;3.80;;;3.22;;
37971;SDS011;23794;48.234;8.344;2022-08-30T14:25:35;3.58;;;3.28;;
37971;SDS011;23794;48.234;8.344;2022-08-30T14:28:02;3.83;;;2.85;;
37971;SDS011;23794;48.234;8.344;2022-08-30T14:30:29;3.47;;;3.17;;
37971;SDS011;23794;48.234;8.344;2022-08-30T14:32:58;3.47;;;2.95;;
37971;SDS011;23794;48.234;8.344;2022-08-30T14:35:25;3.92;;;3.22;;
37971;SDS011;23794;48.234;8.344;2022-08-30T14:37:52;3.80;;;3.50;;
37971;SDS011;23794;48.234;8.344;2022-08-30T14:40:19;3.35;;;3.08;;
37971;SDS011;23794;48.234;8.344;2022-08-30T14:42:46;5.05;;;2.67;;
37971;SDS011;23794;48.234;8.344;2022-08-30T14:45:13;3.88;;;3.20;;
37971;SDS011;23794;48.234;8.344;2022-08-30T14:47:40;4.72;;;3.30;;
37971;SDS011;23794;48.234;8.344;2022-08-30T14:50:07;3.50;;;3.20;;
37971;SDS011;23794;48.234;8.344;2022-08-30T14:52:34;3.65;;;3.17;;
37971;SDS011;23794;48.234;8.344;2022-08-30T14:55:02;3.70;;;3.08;;
37971;SDS011;23794;48.234;8.344;2022-08-30T14:57:34;4.03;;;3.63;;
37971;SDS011;23794;48.234;8.344;2022-08-30T15:00:04;4.63;;;3.35;;
37971;SDS011;23794;48.234;8.344;2022-08-30T15:02:32;3.70;;;3.40;;
37971;SDS011;23794;48.234;8.344;2022-08-30T15:04:59;4.93;;;3.20;;
37971;SDS011;23794;48.234;8.344;2022-08-30T15:07:26;6.07;;;3.78;;
37971;SDS011;23794;48.234;8.344;2022-08-30T15:09:52;4.13;;;2.85;;
37971;SDS011;23794;48.234;8.344;2022-08-30T15:12:19;3.78;;;3.15;;
37971;SDS011;23794;48.234;8.344;2022-08-30T15:14:46;3.30;;;3.00;;
37971;SDS011;23794;48.234;8.344;2022-08-30T15:17:13;3.10;;;2.83;;
37971;SDS011;23794;48.234;8.344;2022-08-30T15:19:42;4.05;;;3.60;;
37971;SDS011;23794;48.234;8.344;2022-08-30T15:22:09;3.78;;;3.00;;
37971;SDS011;23794;48.234;8.344;2022-08-30T15:24:36;3.78;;;2.88;;
37971;SDS011;23794;48.234;8.344;2022-08-30T15:27:03;3.53;;;3.22;;
37971;SDS011;23794;48.234;8.344;2022-08-30T15:29:31;3.88;;;3.47;;
37971;SDS011;23794;48.234;8.344;2022-08-30T15:31:58;4.07;;;3.45;;
37971;SDS011;23794;48.234;8.344;2022-08-30T15:34:26;3.20;;;2.90;;
37971;SDS011;23794;48.234;8.344;2022-08-30T15:36:54;3.70;;;3.40;;
37971;SDS011;23794;48.234;8.344;2022-08-30T15:39:21;3.80;;;2.72;;
37971;SDS011;23794;48.234;8.344;2022-08-30T15:41:50;3.17;;;2.88;;
37971;SDS011;23794;48.234;8.344;2022-08-30T15:44:23;2.90;;;2.60;;
37971;SDS011;23794;48.234;8.344;2022-08-30T15:46:50;4.07;;;3.22;;
37971;SDS011;23794;48.234;8.344;2022-08-30T15:49:19;4.03;;;3.42;;
37971;SDS011;23794;48.234;8.344;2022-08-30T15:51:47;3.90;;;3.30;;
37971;SDS011;23794;48.234;8.344;2022-08-30T15:54:20;4.20;;;3.10;;
37971;SDS011;23794;48.234;8.344;2022-08-30T15:56:47;3.40;;;3.10;;
37971;SDS011;23794;48.234;8.344;2022-08-30T15:59:15;4.43;;;2.90;;
37971;SDS011;23794;48.234;8.344;2022-08-30T16:01:43;3.42;;;2.95;;
37971;SDS011;23794;48.234;8.344;2022-08-30T16:04:13;3.45;;;3.15;;
37971;SDS011;23794;48.234;8.344;2022-08-30T16:06:40;3.80;;;3.10;;
37971;SDS011;23794;48.234;8.344;2022-08-30T16:09:07;4.45;;;2.83;;
37971;SDS011;23794;48.234;8.344;2022-08-30T16:11:35;3.40;;;3.10;;
37971;SDS011;23794;48.234;8.344;2022-08-30T16:14:03;2.97;;;2.67;;
37971;SDS011;23794;48.234;8.344;2022-08-30T16:16:30;3.83;;;2.88;;
37971;SDS011;23794;48.234;8.344;2022-08-30T16:18:58;3.83;;;3.00;;
37971;SDS011;23794;48.234;8.344;2022-08-30T16:21:29;4.32;;;2.80;;
37971;SDS011;23794;48.234;8.344;2022-08-30T16:23:58;4.10;;;3.05;;
37971;SDS011;23794;48.234;8.344;2022-08-30T16:26:27;3.47;;;3.13;;
37971;SDS011;23794;48.234;8.344;2022-08-30T16:28:55;4.03;;;3.20;;
37971;SDS011;23794;48.234;8.344;2022-08-30T16:31:23;4.15;;;3.55;;
37971;SDS011;23794;48.234;8.344;2022-08-30T16:33:53;3.65;;;3.25;;
37971;SDS011;23794;48.234;8.344;2022-08-30T16:36:22;3.20;;;2.90;;
37971;SDS011;23794;48.234;8.344;2022-08-30T16:38:51;4.75;;;3.40;;
37971;SDS011;23794;48.234;8.344;2022-08-30T16:41:23;3.83;;;2.90;;
37971;SDS011;23794;48.234;8.344;2022-08-30T16:43:50;3.25;;;2.83;;
37971;SDS011;23794;48.234;8.344;2022-08-30T16:46:19;3.90;;;3.20;;
37971;SDS011;23794;48.234;8.344;2022-08-30T16:48:53;3.60;;;2.70;;
37971;SDS011;23794;48.234;8.344;2022-08-30T16:51:25;4.43;;;2.60;;
37971;SDS011;23794;48.234;8.344;2022-08-30T16:53:54;3.72;;;3.13;;
37971;SDS011;23794;48.234;8.344;2022-08-30T16:56:22;3.42;;;3.10;;
37971;SDS011;23794;48.234;8.344;2022-08-30T16:58:52;3.83;;;3.42;;
37971;SDS011;23794;48.234;8.344;2022-08-30T17:01:27;3.70;;;3.03;;
37971;SDS011;23794;48.234;8.344;2022-08-30T17:03:55;4.22;;;2.85;;